createdAt,value
2019-05-19T00:02:26.747Z,4.90
2019-05-19T00:07:49.858Z,5.03
2019-05-19T00:13:13.147Z,4.60
2019-05-19T00:18:36.803Z,4.40
2019-05-19T00:24:00.830Z,4.87
2019-05-19T00:29:24.819Z,4.90
2019-05-19T00:34:48.631Z,5.50
2019-05-19T00:40:12.188Z,5.20
2019-05-19T00:45:35.986Z,5.37
2019-05-19T00:50:59.791Z,5.63
2019-05-19T00:56:24.327Z,5.70
2019-05-19T01:01:48.341Z,5.67
2019-05-19T01:07:12.382Z,6.27
2019-05-19T01:12:36.291Z,5.57
2019-05-19T01:18:00.216Z,5.90
2019-05-19T01:23:23.695Z,5.60
2019-05-19T01:28:47.594Z,6.50
2019-05-19T01:34:11.703Z,6.77
2019-05-19T01:39:34.888Z,7.30
2019-05-19T01:44:58.931Z,6.73
2019-05-19T01:50:22.079Z,5.73
2019-05-19T01:55:45.408Z,6.27
2019-05-19T02:01:09.483Z,7.17
2019-05-19T02:06:32.790Z,6.50
2019-05-19T02:11:56.629Z,6.97
2019-05-19T02:17:20.435Z,7.13
2019-05-19T02:22:44.143Z,6.60
2019-05-19T02:28:07.541Z,7.30
2019-05-19T02:33:35.328Z,7.43
2019-05-19T02:38:55.978Z,7.87
2019-05-19T02:44:20.649Z,7.30
2019-05-19T02:49:46.791Z,8.30
2019-05-19T02:55:10.622Z,8.87
2019-05-19T03:00:39.663Z,8.90
2019-05-19T03:06:03.159Z,8.47
2019-05-19T03:11:26.722Z,9.53
2019-05-19T03:16:49.963Z,9.37
2019-05-19T03:22:13.276Z,8.77
2019-05-19T03:27:37.068Z,9.77
2019-05-19T03:33:02.637Z,9.23
2019-05-19T03:38:26.505Z,13.60
2019-05-19T03:43:50.482Z,10.40
2019-05-19T03:49:13.600Z,10.37
2019-05-19T03:54:36.825Z,12.10
2019-05-19T04:00:01.245Z,13.80
2019-05-19T04:05:24.706Z,9.63
2019-05-19T04:10:48.622Z,9.30
2019-05-19T04:16:12.216Z,12.33
2019-05-19T04:21:48.297Z,19.03
2019-05-19T04:27:00.511Z,9.97
2019-05-19T04:32:23.692Z,9.27
2019-05-19T04:37:47.387Z,9.73
2019-05-19T04:43:10.892Z,11.07
2019-05-19T04:48:34.029Z,10.50
2019-05-19T04:53:57.626Z,11.43
2019-05-19T04:59:21.551Z,10.70
2019-05-19T05:04:45.456Z,11.00
2019-05-19T05:10:09.326Z,14.23
2019-05-19T05:15:33.099Z,10.53
2019-05-19T05:20:56.219Z,11.30
2019-05-19T05:26:20.041Z,10.20
2019-05-19T05:31:43.112Z,10.90
2019-05-19T05:37:07.275Z,11.10
2019-05-19T05:42:31.959Z,10.93
2019-05-19T05:47:55.978Z,10.20
2019-05-19T05:53:19.439Z,13.57
2019-05-19T05:58:43.032Z,12.00
2019-05-19T06:04:07.059Z,13.33
2019-05-19T06:09:30.344Z,13.00
2019-05-19T06:14:54.216Z,10.47
2019-05-19T06:20:17.940Z,15.77
2019-05-19T06:25:41.485Z,19.77
2019-05-19T06:31:05.371Z,12.60
2019-05-19T06:36:28.868Z,11.00
2019-05-19T06:41:52.042Z,11.50
2019-05-19T06:47:15.432Z,13.43
2019-05-19T06:52:39.425Z,12.40
2019-05-19T06:58:02.761Z,8.77
2019-05-19T07:03:26.388Z,13.23
2019-05-19T07:08:50.167Z,13.20
2019-05-19T07:14:13.859Z,11.10
2019-05-19T07:19:37.567Z,13.77
2019-05-19T07:25:01.630Z,14.77
2019-05-19T07:30:25.395Z,9.03
2019-05-19T07:35:48.965Z,10.90
2019-05-19T07:41:12.443Z,9.97
2019-05-19T07:46:36.468Z,13.57
2019-05-19T07:52:00.261Z,13.90
2019-05-19T07:57:23.766Z,13.37
2019-05-19T08:02:47.012Z,8.47
2019-05-19T08:08:11.582Z,10.90
2019-05-19T08:13:34.905Z,14.97
2019-05-19T08:18:58.768Z,14.03
2019-05-19T08:24:22.686Z,7.80
2019-05-19T08:29:46.352Z,13.03
2019-05-19T08:35:09.608Z,10.77
2019-05-19T08:40:33.760Z,7.60
2019-05-19T08:45:58.211Z,10.73
2019-05-19T08:51:22.080Z,5.70
2019-05-19T08:56:45.348Z,7.87
2019-05-19T09:02:08.715Z,7.90
2019-05-19T09:07:32.584Z,5.37
2019-05-19T09:12:56.505Z,9.40
2019-05-19T09:18:20.369Z,6.87
2019-05-19T09:23:44.140Z,5.47
2019-05-19T09:29:08.176Z,5.03
2019-05-19T09:34:31.470Z,3.80
2019-05-19T09:39:56.372Z,3.47
2019-05-19T09:45:20.418Z,4.63
2019-05-19T09:50:43.807Z,6.23
2019-05-19T09:56:07.016Z,3.27
2019-05-19T10:01:30.687Z,3.60
2019-05-19T10:06:54.256Z,4.00
2019-05-19T10:12:18.698Z,6.70
2019-05-19T10:17:42.723Z,3.37
2019-05-19T10:23:06.045Z,3.20
2019-05-19T10:28:29.408Z,3.77
2019-05-19T10:33:53.484Z,3.90
2019-05-19T10:39:17.299Z,4.60
2019-05-19T10:44:40.788Z,3.00
2019-05-19T10:50:04.414Z,3.23
2019-05-19T10:55:35.976Z,2.80
2019-05-19T11:00:53.092Z,3.20
2019-05-19T11:06:17.192Z,2.73
2019-05-19T11:11:40.598Z,3.20
2019-05-19T11:17:03.904Z,2.83
2019-05-19T11:22:27.195Z,4.30
2019-05-19T11:27:50.523Z,3.20
2019-05-19T11:33:13.853Z,2.93
2019-05-19T11:38:37.341Z,2.40
2019-05-19T11:44:00.680Z,2.90
2019-05-19T11:49:24.112Z,2.70
2019-05-19T11:54:47.668Z,4.07
2019-05-19T12:00:11.542Z,2.40
2019-05-19T12:05:35.610Z,3.00
2019-05-19T12:10:59.079Z,2.47
2019-05-19T12:16:22.904Z,2.90
2019-05-19T12:21:47.219Z,3.10
2019-05-19T12:27:10.551Z,3.00
2019-05-19T12:32:34.509Z,3.30
2019-05-19T12:37:58.591Z,2.40
2019-05-19T12:43:22.145Z,2.77
2019-05-19T12:48:46.207Z,2.87
2019-05-19T12:54:09.605Z,2.60
2019-05-19T12:59:32.904Z,2.70
2019-05-19T13:05:05.041Z,2.43
2019-05-19T13:10:20.938Z,2.60
2019-05-19T13:15:44.888Z,2.57
2019-05-19T13:21:08.957Z,2.50
2019-05-19T13:26:32.860Z,2.50
2019-05-19T13:31:56.091Z,2.57
2019-05-19T13:37:20.148Z,2.50
2019-05-19T13:42:44.079Z,2.70
2019-05-19T13:48:07.811Z,2.33
2019-05-19T13:53:31.380Z,2.40
2019-05-19T13:58:55.269Z,2.10
2019-05-19T14:04:18.968Z,2.33
2019-05-19T14:09:42.908Z,2.30
2019-05-19T14:15:06.607Z,2.37
2019-05-19T14:20:30.155Z,3.37
2019-05-19T14:25:53.639Z,2.77
2019-05-19T14:31:17.791Z,3.03
2019-05-19T14:36:41.938Z,2.20
2019-05-19T14:42:09.439Z,2.00
2019-05-19T14:47:32.647Z,2.10
2019-05-19T14:52:56.305Z,1.90
2019-05-19T14:58:21.471Z,1.90
2019-05-19T15:03:45.324Z,2.00
2019-05-19T15:09:08.602Z,1.57
2019-05-19T15:14:32.262Z,1.70
2019-05-19T15:19:56.253Z,1.50
2019-05-19T15:25:19.935Z,1.70
2019-05-19T15:30:43.751Z,1.40
2019-05-19T15:36:08.086Z,1.20
2019-05-19T15:41:32.308Z,1.33
2019-05-19T15:46:55.929Z,1.63
2019-05-19T15:52:19.611Z,1.80
2019-05-19T15:57:43.832Z,1.50
2019-05-19T16:03:07.154Z,1.47
2019-05-19T16:08:30.484Z,1.57
2019-05-19T16:13:54.147Z,1.40
2019-05-19T16:19:18.075Z,1.93
2019-05-19T16:24:42.107Z,1.50
2019-05-19T16:30:06.098Z,1.63
2019-05-19T16:35:29.622Z,1.40
2019-05-19T16:40:53.931Z,1.30
2019-05-19T16:46:17.578Z,1.50
2019-05-19T16:51:41.511Z,1.53
2019-05-19T16:57:04.828Z,1.43
2019-05-19T17:02:28.922Z,1.67
2019-05-19T17:07:52.875Z,1.60
2019-05-19T17:13:16.742Z,1.50
2019-05-19T17:18:40.510Z,2.07
2019-05-19T17:24:04.270Z,2.23
2019-05-19T17:29:27.304Z,1.90
2019-05-19T17:34:51.404Z,1.77
2019-05-19T17:40:14.987Z,1.83
2019-05-19T17:45:41.323Z,1.50
2019-05-19T17:51:05.687Z,1.93
2019-05-19T17:56:30.853Z,1.87
2019-05-19T18:01:55.232Z,3.27
2019-05-19T18:07:18.968Z,3.13
2019-05-19T18:12:42.763Z,2.60
2019-05-19T18:18:06.488Z,2.60
2019-05-19T18:23:30.746Z,3.03
2019-05-19T18:28:53.645Z,2.83
2019-05-19T18:34:16.301Z,4.37
2019-05-19T18:39:39.771Z,2.87
2019-05-19T18:45:03.347Z,2.80
2019-05-19T18:50:27.332Z,2.93
2019-05-19T18:55:50.916Z,3.30
2019-05-19T19:01:14.242Z,3.40
2019-05-19T19:06:37.714Z,3.90
2019-05-19T19:12:01.227Z,3.70
2019-05-19T19:17:25.075Z,4.10
2019-05-19T19:22:47.734Z,5.33
2019-05-19T19:28:10.876Z,4.60
2019-05-19T19:33:34.375Z,4.40
2019-05-19T19:38:57.614Z,5.17
2019-05-19T19:44:20.818Z,5.17
2019-05-19T19:49:44.688Z,5.37
2019-05-19T19:55:08.651Z,5.27
2019-05-19T20:00:40.787Z,4.70
2019-05-19T20:06:05.864Z,4.77
2019-05-19T20:11:29.698Z,4.57
2019-05-19T20:16:52.798Z,4.33
2019-05-19T20:22:16.345Z,4.53
2019-05-19T20:27:39.975Z,4.70
2019-05-19T20:33:03.273Z,4.30
2019-05-19T20:38:27.007Z,3.33
2019-05-19T20:43:50.932Z,3.50
2019-05-19T20:49:14.553Z,3.87
2019-05-19T20:54:38.220Z,3.43
2019-05-19T21:00:01.493Z,3.50
2019-05-19T21:11:10.100Z,3.37
2019-05-19T21:16:33.200Z,3.27
2019-05-19T21:21:56.683Z,3.50
2019-05-19T21:27:19.579Z,3.07
2019-05-19T21:32:42.796Z,3.07
2019-05-19T21:38:06.692Z,3.00
2019-05-19T21:43:30.204Z,3.03
2019-05-19T21:48:53.398Z,3.23
2019-05-19T21:54:17.049Z,3.23
2019-05-19T21:59:40.193Z,3.20
2019-05-19T22:05:06.811Z,3.20
2019-05-19T22:10:30.194Z,3.20
2019-05-19T22:15:53.505Z,2.93
2019-05-19T22:21:17.007Z,3.57
2019-05-19T22:26:40.429Z,3.47
2019-05-19T22:32:03.937Z,3.43
2019-05-19T22:37:27.109Z,3.47
2019-05-19T22:42:50.102Z,3.40
2019-05-19T22:48:13.219Z,3.37
2019-05-19T22:53:36.032Z,3.30
2019-05-19T22:58:58.991Z,3.37
2019-05-19T23:04:22.077Z,3.40
2019-05-19T23:09:44.826Z,3.17
2019-05-19T23:15:08.684Z,3.30
2019-05-19T23:20:32.421Z,3.33
2019-05-19T23:25:55.843Z,3.40
2019-05-19T23:31:18.845Z,3.33
2019-05-19T23:36:42.392Z,3.50
2019-05-19T23:42:06.035Z,4.03
2019-05-19T23:47:28.791Z,3.63
2019-05-19T23:52:52.641Z,4.00
2019-05-19T23:58:15.795Z,4.00
